createdAt,value
2023-05-08T00:00:58.537Z,6.18
2023-05-08T00:03:25.471Z,6.28
2023-05-08T00:05:51.990Z,6.57
2023-05-08T00:08:18.324Z,5.28
2023-05-08T00:10:44.719Z,3.63
2023-05-08T00:13:11.133Z,4.80
2023-05-08T00:15:37.636Z,3.70
2023-05-08T00:18:04.185Z,3.42
2023-05-08T00:20:30.558Z,2.72
2023-05-08T00:22:57.990Z,5.10
2023-05-08T00:25:24.407Z,5.82
2023-05-08T00:27:50.788Z,3.63
2023-05-08T00:30:17.305Z,3.10
2023-05-08T00:32:43.765Z,4.80
2023-05-08T00:35:10.515Z,3.15
2023-05-08T00:37:37.820Z,2.38
2023-05-08T00:40:04.374Z,5.07
2023-05-08T00:42:30.849Z,4.03
2023-05-08T00:44:57.354Z,3.83
2023-05-08T00:47:23.907Z,3.10
2023-05-08T00:49:50.635Z,3.22
2023-05-08T00:52:17.579Z,3.50
2023-05-08T00:54:44.249Z,2.33
2023-05-08T00:57:10.604Z,1.58
2023-05-08T00:59:37.387Z,2.75
2023-05-08T01:02:04.181Z,2.58
2023-05-08T01:04:30.545Z,2.13
2023-05-08T01:06:56.843Z,3.60
2023-05-08T01:09:23.202Z,2.58
2023-05-08T01:12:18.866Z,3.35
2023-05-08T01:15:03.920Z,2.80
2023-05-08T01:17:31.820Z,2.20
2023-05-08T01:20:07.611Z,2.55
2023-05-08T01:22:46.201Z,2.53
2023-05-08T01:25:24.386Z,3.05
2023-05-08T01:27:50.689Z,3.63
2023-05-08T01:30:17.085Z,2.88
2023-05-08T01:32:46.750Z,2.42
2023-05-08T01:35:21.321Z,1.83
2023-05-08T01:37:50.874Z,2.20
2023-05-08T01:40:24.855Z,3.38
2023-05-08T01:42:56.862Z,2.40
2023-05-08T01:47:51.837Z,5.28
2023-05-08T01:50:20.966Z,4.75
2023-05-08T01:52:50.512Z,3.35
2023-05-08T01:55:34.416Z,3.33
2023-05-08T01:58:01.993Z,3.92
2023-05-08T02:00:28.629Z,4.25
2023-05-08T02:02:56.032Z,3.55
2023-05-08T02:05:23.539Z,4.03
2023-05-08T02:07:51.199Z,3.25
2023-05-08T02:10:18.571Z,1.70
2023-05-08T02:12:45.405Z,2.42
2023-05-08T02:15:13.752Z,2.47
2023-05-08T02:17:41.025Z,2.40
2023-05-08T02:20:08.665Z,2.58
2023-05-08T02:22:35.681Z,1.88
2023-05-08T02:25:02.658Z,1.73
2023-05-08T02:27:30.345Z,1.80
2023-05-08T02:29:57.197Z,3.05
2023-05-08T02:32:25.237Z,3.25
2023-05-08T02:35:02.649Z,2.10
2023-05-08T02:37:30.430Z,2.42
2023-05-08T02:39:58.349Z,1.60
2023-05-08T02:42:24.955Z,1.50
2023-05-08T02:44:51.501Z,1.83
2023-05-08T02:47:20.626Z,1.20
2023-05-08T02:49:50.401Z,0.90
2023-05-08T02:52:37.170Z,1.25
2023-05-08T02:55:12.622Z,2.42
2023-05-08T02:57:41.979Z,1.55
2023-05-08T03:00:11.482Z,1.05
2023-05-08T03:02:40.469Z,1.67
2023-05-08T03:05:11.317Z,2.03
2023-05-08T03:07:39.226Z,1.83
2023-05-08T03:10:08.132Z,2.40
2023-05-08T03:12:36.214Z,2.95
2023-05-08T03:15:21.560Z,2.63
2023-05-08T03:17:49.208Z,2.22
2023-05-08T03:20:17.678Z,6.22
2023-05-08T03:22:44.527Z,4.78
2023-05-08T03:25:11.305Z,2.50
2023-05-08T03:27:38.557Z,3.58
2023-05-08T03:30:05.552Z,3.30
2023-05-08T03:32:34.033Z,4.05
2023-05-08T03:35:01.421Z,3.10
2023-05-08T03:37:28.557Z,2.85
2023-05-08T03:39:58.558Z,1.90
2023-05-08T03:42:25.386Z,1.95
2023-05-08T03:44:52.403Z,2.72
2023-05-08T03:47:19.646Z,1.80
2023-05-08T03:49:46.906Z,1.90
2023-05-08T03:52:13.827Z,1.95
2023-05-08T03:54:40.391Z,1.20
2023-05-08T03:57:06.798Z,1.23
2023-05-08T03:59:46.215Z,1.40
2023-05-08T04:02:24.924Z,2.20
2023-05-08T04:04:55.485Z,2.30
2023-05-08T04:07:22.700Z,2.20
2023-05-08T04:09:51.851Z,2.05
2023-05-08T04:12:20.476Z,2.55
2023-05-08T04:14:54.216Z,1.40
2023-05-08T04:17:28.154Z,1.58
2023-05-08T04:19:58.894Z,1.30
2023-05-08T04:22:25.745Z,3.47
2023-05-08T04:24:53.568Z,2.90
2023-05-08T04:27:20.091Z,5.38
2023-05-08T04:29:46.430Z,3.90
2023-05-08T04:32:13.339Z,3.85
2023-05-08T04:34:40.060Z,6.72
2023-05-08T04:37:07.316Z,8.48
2023-05-08T04:39:33.633Z,8.82
2023-05-08T04:42:03.700Z,8.68
2023-05-08T04:44:30.265Z,9.80
2023-05-08T04:46:56.609Z,6.53
2023-05-08T04:49:22.906Z,5.20
2023-05-08T04:51:49.185Z,7.25
2023-05-08T04:54:15.548Z,3.33
2023-05-08T04:56:41.850Z,4.10
2023-05-08T04:59:08.123Z,5.50
2023-05-08T05:01:34.510Z,3.60
2023-05-08T05:04:01.136Z,3.42
2023-05-08T05:06:27.616Z,2.63
2023-05-08T05:08:53.945Z,4.65
2023-05-08T05:11:21.442Z,3.55
2023-05-08T05:13:47.809Z,3.17
2023-05-08T05:16:14.205Z,2.38
2023-05-08T05:18:40.853Z,2.97
2023-05-08T05:21:07.176Z,1.35
2023-05-08T05:23:33.468Z,1.65
2023-05-08T05:25:59.763Z,0.95
2023-05-08T05:28:26.186Z,1.17
2023-05-08T05:30:52.634Z,2.55
2023-05-08T05:33:18.972Z,2.10
2023-05-08T05:35:45.329Z,1.92
2023-05-08T05:38:11.727Z,2.70
2023-05-08T05:40:38.039Z,3.03
2023-05-08T05:43:04.421Z,1.65
2023-05-08T05:45:33.283Z,4.43
2023-05-08T05:48:00.206Z,5.28
2023-05-08T05:50:27.273Z,4.38
2023-05-08T05:52:54.225Z,4.88
2023-05-08T05:55:20.708Z,3.08
2023-05-08T05:57:47.528Z,4.35
2023-05-08T06:00:14.070Z,4.82
2023-05-08T06:02:41.810Z,13.27
2023-05-08T06:05:08.585Z,5.40
2023-05-08T06:07:35.750Z,6.57
2023-05-08T06:10:02.209Z,7.45
2023-05-08T06:12:28.677Z,9.00
2023-05-08T06:14:55.355Z,9.40
2023-05-08T06:17:22.285Z,9.45
2023-05-08T06:19:50.492Z,5.85
2023-05-08T06:22:18.190Z,5.60
2023-05-08T06:24:44.941Z,5.60
2023-05-08T06:27:11.742Z,6.68
2023-05-08T06:29:38.060Z,9.07
2023-05-08T06:32:04.471Z,5.20
2023-05-08T06:34:31.526Z,5.15
2023-05-08T06:36:58.092Z,3.63
2023-05-08T06:39:24.401Z,6.43
2023-05-08T06:41:50.757Z,4.25
2023-05-08T06:44:17.042Z,5.25
2023-05-08T06:46:43.483Z,5.80
2023-05-08T06:49:09.920Z,6.95
2023-05-08T06:51:38.231Z,4.60
2023-05-08T06:54:07.912Z,6.00
2023-05-08T06:56:34.769Z,4.70
2023-05-08T06:59:08.249Z,5.43
2023-05-08T07:01:35.787Z,6.25
2023-05-08T07:04:02.216Z,7.25
2023-05-08T07:06:28.693Z,4.55
2023-05-08T07:08:55.026Z,4.88
2023-05-08T07:11:21.379Z,4.80
2023-05-08T07:13:48.333Z,3.72
2023-05-08T07:16:15.572Z,2.80
2023-05-08T07:18:42.349Z,2.00
2023-05-08T07:21:08.715Z,2.08
2023-05-08T07:23:35.209Z,2.28
2023-05-08T07:26:01.640Z,2.53
2023-05-08T07:28:27.954Z,4.60
2023-05-08T07:30:54.668Z,3.33
2023-05-08T07:33:20.955Z,4.95
2023-05-08T07:35:47.324Z,3.60
2023-05-08T07:38:13.656Z,3.65
2023-05-08T07:40:40.050Z,3.83
2023-05-08T07:43:06.414Z,3.22
2023-05-08T07:45:32.776Z,3.50
2023-05-08T07:47:59.267Z,1.70
2023-05-08T07:50:25.983Z,8.98
2023-05-08T07:52:52.812Z,5.72
2023-05-08T07:55:19.695Z,10.15
2023-05-08T07:57:46.079Z,6.05
2023-05-08T08:00:13.897Z,4.47
2023-05-08T08:02:40.843Z,2.78
2023-05-08T08:05:07.622Z,2.88
2023-05-08T08:07:34.079Z,2.15
2023-05-08T08:10:00.909Z,2.38
2023-05-08T08:12:27.680Z,1.42
2023-05-08T08:14:54.265Z,1.90
2023-05-08T08:17:20.702Z,1.40
2023-05-08T08:19:47.275Z,1.30
2023-05-08T08:22:13.645Z,1.40
2023-05-08T08:24:40.002Z,1.48
2023-05-08T08:27:06.429Z,2.10
2023-05-08T08:29:32.843Z,2.45
2023-05-08T08:32:00.528Z,2.08
2023-05-08T08:34:26.910Z,1.67
2023-05-08T08:36:53.215Z,2.72
2023-05-08T08:39:19.662Z,2.45
2023-05-08T08:41:46.085Z,1.88
2023-05-08T08:44:12.470Z,1.33
2023-05-08T08:46:44.042Z,1.30
2023-05-08T08:49:13.694Z,2.42
2023-05-08T08:51:46.012Z,1.80
2023-05-08T08:54:13.155Z,1.90
2023-05-08T08:56:40.660Z,2.13
2023-05-08T08:59:08.740Z,1.63
2023-05-08T09:01:38.413Z,2.10
2023-05-08T09:04:05.442Z,1.95
2023-05-08T09:06:35.819Z,2.20
2023-05-08T09:09:02.460Z,2.17
2023-05-08T09:11:28.961Z,3.72
2023-05-08T09:13:55.643Z,2.00
2023-05-08T09:16:22.609Z,3.42
2023-05-08T09:18:49.100Z,2.10
2023-05-08T09:21:15.588Z,3.20
2023-05-08T09:23:55.156Z,3.42
2023-05-08T09:26:48.254Z,5.97
2023-05-08T09:29:16.096Z,5.00
2023-05-08T09:31:50.171Z,2.83
2023-05-08T09:34:24.649Z,3.85
2023-05-08T09:36:51.160Z,6.35
2023-05-08T09:39:21.751Z,4.45
2023-05-08T09:42:01.003Z,5.85
2023-05-08T09:44:27.480Z,3.53
2023-05-08T09:47:12.983Z,3.97
2023-05-08T09:49:40.552Z,4.35
2023-05-08T09:52:08.370Z,4.25
2023-05-08T09:54:35.003Z,3.10
2023-05-08T09:57:11.025Z,2.72
2023-05-08T09:59:37.886Z,4.63
2023-05-08T10:02:10.352Z,3.33
2023-05-08T10:04:37.390Z,4.03
2023-05-08T10:07:04.176Z,3.70
2023-05-08T10:09:42.507Z,7.30
2023-05-08T10:12:13.770Z,7.93
2023-05-08T10:14:40.140Z,4.63
2023-05-08T10:17:08.036Z,5.70
2023-05-08T10:19:36.355Z,3.28
2023-05-08T10:22:03.533Z,2.85
2023-05-08T10:24:33.525Z,3.10
2023-05-08T10:27:07.437Z,3.33
2023-05-08T10:29:41.508Z,3.88
2023-05-08T10:32:10.011Z,5.15
2023-05-08T10:34:38.474Z,5.50
2023-05-08T10:37:05.809Z,6.55
2023-05-08T10:39:33.471Z,6.30
2023-05-08T10:42:01.068Z,5.22
2023-05-08T10:44:28.543Z,3.85
2023-05-08T10:46:58.275Z,3.00
2023-05-08T10:49:39.896Z,7.70
2023-05-08T10:52:30.212Z,6.10
2023-05-08T10:55:04.336Z,4.55
2023-05-08T10:57:31.678Z,4.03
2023-05-08T10:59:58.074Z,4.20
2023-05-08T11:02:29.838Z,5.10
2023-05-08T11:07:51.434Z,4.43
2023-05-08T11:10:17.906Z,3.30
2023-05-08T11:12:48.668Z,3.13
2023-05-08T11:15:15.053Z,2.83
2023-05-08T11:17:46.621Z,1.95
2023-05-08T11:20:13.314Z,1.77
2023-05-08T11:22:47.122Z,1.45
2023-05-08T11:25:13.549Z,1.92
2023-05-08T11:27:49.142Z,1.60
2023-05-08T11:30:22.611Z,1.40
2023-05-08T11:33:04.687Z,1.13
2023-05-08T11:35:40.713Z,1.10
2023-05-08T11:38:17.592Z,1.75
2023-05-08T11:40:47.277Z,1.55
2023-05-08T11:43:28.688Z,2.08
2023-05-08T11:45:58.832Z,2.42
2023-05-08T11:48:25.367Z,3.20
2023-05-08T11:50:51.864Z,2.03
2023-05-08T11:53:18.227Z,1.45
2023-05-08T11:55:48.126Z,2.30
2023-05-08T11:58:15.472Z,2.78
2023-05-08T12:00:45.967Z,1.70
2023-05-08T12:03:16.823Z,1.60
2023-05-08T12:05:43.310Z,1.70
2023-05-08T12:08:10.472Z,3.67
2023-05-08T12:10:46.933Z,2.97
2023-05-08T12:13:18.209Z,1.70
2023-05-08T12:15:47.982Z,2.33
2023-05-08T12:18:15.194Z,2.08
2023-05-08T12:20:41.745Z,2.30
2023-05-08T12:23:10.120Z,4.13
2023-05-08T12:25:39.676Z,4.60
2023-05-08T12:28:07.548Z,3.17
2023-05-08T12:30:33.986Z,10.45
2023-05-08T12:33:00.975Z,8.43
2023-05-08T12:35:27.529Z,6.82
2023-05-08T12:37:53.874Z,8.40
2023-05-08T12:40:27.341Z,8.50
2023-05-08T12:42:53.921Z,6.57
2023-05-08T12:45:20.943Z,9.35
2023-05-08T12:47:48.206Z,13.75
2023-05-08T12:50:15.507Z,8.57
2023-05-08T12:52:42.263Z,7.40
2023-05-08T12:55:25.467Z,6.80
2023-05-08T12:58:02.424Z,8.27
2023-05-08T13:00:38.186Z,5.55
2023-05-08T13:03:05.531Z,4.97
2023-05-08T13:05:32.279Z,8.23
2023-05-08T13:07:59.350Z,6.32
2023-05-08T13:10:27.560Z,6.38
2023-05-08T13:12:54.073Z,10.43
2023-05-08T13:15:21.201Z,8.07
2023-05-08T13:17:47.757Z,4.72
2023-05-08T13:20:14.398Z,3.85
2023-05-08T13:22:40.964Z,10.32
2023-05-08T13:25:07.765Z,7.95
2023-05-08T13:27:34.138Z,8.35
2023-05-08T13:30:00.479Z,9.85
2023-05-08T13:32:26.900Z,7.97
2023-05-08T13:34:56.402Z,5.65
2023-05-08T13:37:26.314Z,4.90
2023-05-08T13:39:52.621Z,13.45
2023-05-08T13:42:19.095Z,14.07
2023-05-08T13:44:45.556Z,11.38
2023-05-08T13:47:11.970Z,9.45
2023-05-08T13:49:38.619Z,9.27
2023-05-08T13:52:05.142Z,12.18
2023-05-08T13:54:31.446Z,9.73
2023-05-08T13:56:57.815Z,10.40
2023-05-08T13:59:24.422Z,12.77
2023-05-08T14:01:50.908Z,11.77
2023-05-08T14:04:17.372Z,10.77
2023-05-08T14:06:43.844Z,11.10
2023-05-08T14:09:10.247Z,10.07
2023-05-08T14:11:36.535Z,9.65
2023-05-08T14:14:02.967Z,13.02
2023-05-08T14:16:29.532Z,10.93
2023-05-08T14:18:55.916Z,7.55
2023-05-08T14:21:22.315Z,6.03
2023-05-08T14:23:48.623Z,8.57
2023-05-08T14:26:15.123Z,8.82
2023-05-08T14:28:41.774Z,5.93
2023-05-08T14:31:08.192Z,6.78
2023-05-08T14:33:34.625Z,8.10
2023-05-08T14:36:00.984Z,5.78
2023-05-08T14:38:27.447Z,5.72
2023-05-08T14:40:54.534Z,5.60
2023-05-08T14:43:21.378Z,4.70
2023-05-08T14:45:47.822Z,6.70
2023-05-08T14:48:14.487Z,6.50
2023-05-08T14:50:41.084Z,3.40
2023-05-08T14:53:07.733Z,2.63
2023-05-08T14:55:34.370Z,5.50
2023-05-08T14:58:00.972Z,8.75
2023-05-08T15:00:27.394Z,7.57
2023-05-08T15:02:53.801Z,7.47
2023-05-08T15:05:20.586Z,6.97
2023-05-08T15:07:47.053Z,5.90
2023-05-08T15:10:13.560Z,6.57
2023-05-08T15:12:39.857Z,4.82
2023-05-08T15:15:06.510Z,7.60
2023-05-08T15:17:35.641Z,7.05
2023-05-08T15:20:03.411Z,7.10
2023-05-08T15:22:29.852Z,5.45
2023-05-08T15:25:02.001Z,6.18
2023-05-08T15:27:29.024Z,8.27
2023-05-08T15:29:55.909Z,5.10
2023-05-08T15:32:22.289Z,5.93
2023-05-08T15:34:48.658Z,5.10
2023-05-08T15:37:15.059Z,6.65
2023-05-08T15:39:41.407Z,3.83
2023-05-08T15:42:07.786Z,3.85
2023-05-08T15:44:52.584Z,2.80
2023-05-08T15:47:22.607Z,3.25
2023-05-08T15:49:49.024Z,2.75
2023-05-08T15:52:18.614Z,5.18
2023-05-08T15:54:51.080Z,5.90
2023-05-08T15:57:17.491Z,4.78
2023-05-08T15:59:43.832Z,3.22
2023-05-08T16:02:10.335Z,3.95
2023-05-08T16:04:36.714Z,4.13
2023-05-08T16:07:03.133Z,4.65
2023-05-08T16:09:29.549Z,3.15
2023-05-08T16:11:55.896Z,4.97
2023-05-08T16:14:22.255Z,6.07
2023-05-08T16:16:48.574Z,6.13
2023-05-08T16:19:15.909Z,8.40
2023-05-08T16:21:42.283Z,7.00
2023-05-08T16:24:08.609Z,9.38
2023-05-08T16:26:35.016Z,7.53
2023-05-08T16:29:01.329Z,4.88
2023-05-08T16:31:27.732Z,5.45
2023-05-08T16:33:54.121Z,5.43
2023-05-08T16:36:20.657Z,4.55
2023-05-08T16:38:47.102Z,3.55
2023-05-08T16:41:13.527Z,4.63
2023-05-08T16:43:39.959Z,5.40
2023-05-08T16:46:07.315Z,4.68
2023-05-08T16:48:34.000Z,3.53
2023-05-08T16:51:00.416Z,8.65
2023-05-08T16:53:27.326Z,6.32
2023-05-08T16:55:54.639Z,5.50
2023-05-08T16:58:22.816Z,6.50
2023-05-08T17:00:49.338Z,5.32
2023-05-08T17:03:16.303Z,5.65
2023-05-08T17:05:42.981Z,4.47
2023-05-08T17:08:09.857Z,3.30
2023-05-08T17:10:36.468Z,4.75
2023-05-08T17:13:02.920Z,5.35
2023-05-08T17:15:29.278Z,5.70
2023-05-08T17:17:55.998Z,6.22
2023-05-08T17:20:22.459Z,7.40
2023-05-08T17:22:48.820Z,4.50
2023-05-08T17:25:15.184Z,5.50
2023-05-08T17:27:41.549Z,5.90
2023-05-08T17:30:11.832Z,5.50
2023-05-08T17:32:38.636Z,6.85
2023-05-08T17:35:05.268Z,6.03
2023-05-08T17:37:31.639Z,5.25
2023-05-08T17:39:57.959Z,6.38
2023-05-08T17:42:24.238Z,5.95
2023-05-08T17:44:50.790Z,3.88
2023-05-08T17:47:17.113Z,6.63
2023-05-08T17:49:43.464Z,6.97
2023-05-08T17:52:09.965Z,6.90
2023-05-08T17:54:36.275Z,6.10
2023-05-08T17:57:03.070Z,4.90
2023-05-08T17:59:29.416Z,6.55
2023-05-08T18:01:55.861Z,6.45
2023-05-08T18:04:22.261Z,7.32
2023-05-08T18:06:49.528Z,6.25
2023-05-08T18:09:16.061Z,6.85
2023-05-08T18:11:42.461Z,5.10
2023-05-08T18:14:08.826Z,4.30
2023-05-08T18:16:35.337Z,7.18
2023-05-08T18:19:01.683Z,6.78
2023-05-08T18:21:28.939Z,6.28
2023-05-08T18:23:55.340Z,5.03
2023-05-08T18:26:21.672Z,5.82
2023-05-08T18:28:48.144Z,6.57
2023-05-08T18:31:16.307Z,7.13
2023-05-08T18:33:42.672Z,7.30
2023-05-08T18:36:09.130Z,7.57
2023-05-08T18:38:36.312Z,6.45
2023-05-08T18:41:03.309Z,5.35
2023-05-08T18:43:29.730Z,9.68
2023-05-08T18:45:56.347Z,9.68
2023-05-08T18:48:22.675Z,8.80
2023-05-08T18:50:49.028Z,5.70
2023-05-08T18:53:15.467Z,3.97
2023-05-08T18:55:41.815Z,5.28
2023-05-08T18:58:08.314Z,6.18
2023-05-08T19:00:34.732Z,4.40
2023-05-08T19:03:01.279Z,3.30
2023-05-08T19:05:27.757Z,4.03
2023-05-08T19:07:54.160Z,2.85
2023-05-08T19:10:20.667Z,1.98
2023-05-08T19:12:47.109Z,4.78
2023-05-08T19:15:14.018Z,5.88
2023-05-08T19:17:41.333Z,5.93
2023-05-08T19:20:07.933Z,4.45
2023-05-08T19:22:35.834Z,3.08
2023-05-08T19:25:02.785Z,2.22
2023-05-08T19:27:29.231Z,1.90
2023-05-08T19:29:55.592Z,1.45
2023-05-08T19:32:22.007Z,1.20
2023-05-08T19:34:48.452Z,0.93
2023-05-08T19:37:14.774Z,1.00
2023-05-08T19:39:41.118Z,0.70
2023-05-08T19:42:07.594Z,3.33
2023-05-08T19:44:34.006Z,4.25
2023-05-08T19:47:03.048Z,6.63
2023-05-08T19:49:30.226Z,4.78
2023-05-08T19:51:56.579Z,5.18
2023-05-08T19:54:23.177Z,7.43
2023-05-08T19:56:49.511Z,6.18
2023-05-08T19:59:16.326Z,7.70
2023-05-08T20:01:43.345Z,6.55
2023-05-08T20:04:09.847Z,5.72
2023-05-08T20:06:38.233Z,6.45
2023-05-08T20:09:04.730Z,8.60
2023-05-08T20:11:31.118Z,6.75
2023-05-08T20:13:57.551Z,5.90
2023-05-08T20:16:23.897Z,10.70
2023-05-08T20:18:50.357Z,7.88
2023-05-08T20:21:16.655Z,8.77
2023-05-08T20:23:43.914Z,7.70
2023-05-08T20:26:10.378Z,6.60
2023-05-08T20:28:36.925Z,6.35
2023-05-08T20:31:03.409Z,7.32
2023-05-08T20:33:29.910Z,5.07
2023-05-08T20:35:56.394Z,5.45
2023-05-08T20:38:22.748Z,4.07
2023-05-08T20:40:49.149Z,4.75
2023-05-08T20:43:19.369Z,4.18
2023-05-08T20:45:45.824Z,4.60
2023-05-08T20:48:12.242Z,3.05
2023-05-08T20:50:38.580Z,1.95
2023-05-08T20:53:04.895Z,2.30
2023-05-08T20:55:31.232Z,2.88
2023-05-08T20:57:59.313Z,2.78
2023-05-08T21:00:25.756Z,2.58
2023-05-08T21:02:52.378Z,2.05
2023-05-08T21:05:18.957Z,1.20
2023-05-08T21:07:45.346Z,1.40
2023-05-08T21:10:12.027Z,0.90
2023-05-08T21:12:38.928Z,0.95
2023-05-08T21:15:06.319Z,0.80
2023-05-08T21:17:32.672Z,1.48
2023-05-08T21:19:59.075Z,1.55
2023-05-08T21:22:25.391Z,2.00
2023-05-08T21:24:51.902Z,1.40
2023-05-08T21:27:18.353Z,1.95
2023-05-08T21:29:44.760Z,1.65
2023-05-08T21:32:11.133Z,1.15
2023-05-08T21:34:37.544Z,1.92
2023-05-08T21:37:03.893Z,2.25
2023-05-08T21:39:30.332Z,2.45
2023-05-08T21:41:56.808Z,1.95
2023-05-08T21:44:23.139Z,2.28
2023-05-08T21:46:49.561Z,1.40
2023-05-08T21:49:16.047Z,1.02
2023-05-08T21:51:43.416Z,1.13
2023-05-08T21:54:09.910Z,0.52
2023-05-08T21:56:36.250Z,0.55
2023-05-08T21:59:02.568Z,0.80
2023-05-08T22:01:29.145Z,0.70
2023-05-08T22:03:56.532Z,0.90
2023-05-08T22:06:22.997Z,0.68
2023-05-08T22:08:49.462Z,0.50
2023-05-08T22:11:15.808Z,0.63
2023-05-08T22:13:42.126Z,0.40
2023-05-08T22:16:08.522Z,0.40
2023-05-08T22:18:34.934Z,0.70
2023-05-08T22:21:01.357Z,0.50
2023-05-08T22:23:27.805Z,0.85
2023-05-08T22:25:54.196Z,0.77
2023-05-08T22:28:20.590Z,0.55
2023-05-08T22:30:47.025Z,1.00
2023-05-08T22:33:13.357Z,0.90
2023-05-08T22:35:39.742Z,1.20
2023-05-08T22:38:06.080Z,0.88
2023-05-08T22:40:32.587Z,0.60
2023-05-08T22:42:59.117Z,0.70
2023-05-08T22:45:26.969Z,0.52
2023-05-08T22:47:53.827Z,1.05
2023-05-08T22:50:20.227Z,0.60
2023-05-08T22:52:46.842Z,1.25
2023-05-08T22:55:15.302Z,1.02
2023-05-08T22:57:41.902Z,2.10
2023-05-08T23:00:08.607Z,2.85
2023-05-08T23:02:35.340Z,2.85
2023-05-08T23:05:02.295Z,1.70
2023-05-08T23:07:29.008Z,1.30
2023-05-08T23:09:55.407Z,1.27
2023-05-08T23:12:21.946Z,1.00
2023-05-08T23:14:48.343Z,1.00
2023-05-08T23:17:14.713Z,0.77
2023-05-08T23:19:41.960Z,0.50
2023-05-08T23:22:08.830Z,0.43
2023-05-08T23:24:35.722Z,0.82
2023-05-08T23:27:02.199Z,0.60
2023-05-08T23:29:28.695Z,0.85
2023-05-08T23:31:55.083Z,2.83
2023-05-08T23:34:21.414Z,2.97
2023-05-08T23:36:47.735Z,4.05
2023-05-08T23:39:14.128Z,6.47
2023-05-08T23:41:40.510Z,4.60
2023-05-08T23:44:06.887Z,8.38
2023-05-08T23:46:33.337Z,6.40
2023-05-08T23:48:59.805Z,4.70
2023-05-08T23:51:26.247Z,2.70
2023-05-08T23:53:52.539Z,2.35
2023-05-08T23:56:18.982Z,1.80
2023-05-08T23:58:45.408Z,1.35
